createdAt,value
2022-09-12T00:02:08.029Z,65.85
2022-09-12T00:07:28.601Z,66.15
2022-09-12T00:12:49.322Z,66.05
2022-09-12T00:18:14.479Z,66.48
2022-09-12T00:23:35.048Z,66.49
2022-09-12T00:28:55.890Z,66.42
2022-09-12T00:34:16.617Z,66.29
2022-09-12T00:39:37.229Z,66.57
2022-09-12T00:44:58.117Z,66.39
2022-09-12T00:50:19.466Z,66.46
2022-09-12T00:55:43.635Z,66.85
2022-09-12T01:01:04.568Z,66.71
2022-09-12T01:06:31.094Z,66.47
2022-09-12T01:11:53.623Z,66.90
2022-09-12T01:17:15.317Z,66.54
2022-09-12T01:22:51.014Z,66.56
2022-09-12T01:28:46.161Z,66.22
2022-09-12T01:34:21.990Z,66.06
2022-09-12T01:39:58.105Z,66.18
2022-09-12T01:45:48.309Z,66.35
2022-09-12T01:51:14.947Z,66.25
2022-09-12T01:56:39.210Z,66.18
2022-09-12T02:02:13.679Z,65.58
2022-09-12T02:07:45.053Z,65.41
2022-09-12T02:13:50.687Z,65.75
2022-09-12T02:19:34.511Z,65.63
2022-09-12T02:24:59.955Z,65.64
2022-09-12T02:30:22.871Z,65.68
2022-09-12T02:35:52.968Z,65.19
2022-09-12T02:41:17.581Z,65.31
2022-09-12T02:46:46.870Z,65.49
2022-09-12T02:52:07.924Z,65.41
2022-09-12T02:57:28.733Z,65.39
2022-09-12T03:03:26.991Z,65.53
2022-09-12T03:09:16.157Z,65.17
2022-09-12T03:14:39.955Z,65.21
2022-09-12T03:20:10.358Z,65.02
2022-09-12T03:25:48.547Z,65.22
2022-09-12T03:31:15.031Z,65.07
2022-09-12T03:36:35.907Z,65.11
2022-09-12T03:41:57.319Z,65.07
2022-09-12T03:47:18.242Z,65.19
2022-09-12T03:52:38.905Z,64.93
2022-09-12T03:57:59.656Z,65.20
2022-09-12T04:03:20.494Z,64.90
2022-09-12T04:08:42.416Z,64.97
2022-09-12T04:14:03.025Z,65.20
2022-09-12T04:19:23.816Z,65.29
2022-09-12T04:24:44.671Z,64.96
2022-09-12T04:30:06.263Z,65.14
2022-09-12T04:35:27.648Z,64.82
2022-09-12T04:40:48.511Z,64.97
2022-09-12T04:46:11.494Z,64.89
2022-09-12T04:51:35.912Z,65.43
2022-09-12T04:56:56.526Z,64.95
2022-09-12T05:02:17.307Z,65.00
2022-09-12T05:07:37.912Z,65.17
2022-09-12T05:12:58.622Z,65.08
2022-09-12T05:18:19.419Z,65.96
2022-09-12T05:23:40.584Z,65.88
2022-09-12T05:29:04.758Z,66.13
2022-09-12T05:34:25.692Z,65.90
2022-09-12T05:39:46.547Z,66.05
2022-09-12T05:45:07.473Z,66.36
2022-09-12T05:50:28.309Z,66.62
2022-09-12T05:55:49.264Z,66.82
2022-09-12T06:01:14.726Z,66.97
2022-09-12T06:06:38.575Z,67.47
2022-09-12T06:11:59.549Z,67.15
2022-09-12T06:17:20.571Z,67.14
2022-09-12T06:22:41.446Z,67.58
2022-09-12T06:28:02.323Z,67.41
2022-09-12T06:33:23.214Z,67.58
2022-09-12T06:38:46.364Z,67.36
2022-09-12T06:44:07.284Z,67.67
2022-09-12T06:49:28.016Z,67.42
2022-09-12T06:54:49.214Z,67.51
2022-09-12T07:00:10.562Z,67.25
2022-09-12T07:05:34.271Z,67.74
2022-09-12T07:10:55.153Z,67.82
2022-09-12T07:16:19.749Z,67.47
2022-09-12T07:21:41.517Z,67.42
2022-09-12T07:27:02.702Z,67.66
2022-09-12T07:32:23.839Z,66.53
2022-09-12T07:37:44.762Z,66.97
2022-09-12T07:43:05.361Z,67.25
2022-09-12T07:48:28.355Z,67.40
2022-09-12T07:53:49.972Z,67.43
2022-09-12T07:59:11.605Z,68.24
2022-09-12T08:04:32.236Z,67.77
2022-09-12T08:09:53.527Z,67.61
2022-09-12T08:15:14.193Z,67.67
2022-09-12T08:20:34.732Z,67.59
2022-09-12T08:25:57.527Z,67.39
2022-09-12T08:31:20.454Z,66.82
2022-09-12T08:36:41.456Z,67.40
2022-09-12T08:42:03.758Z,67.18
2022-09-12T08:47:32.547Z,67.21
2022-09-12T08:53:02.516Z,67.55
2022-09-12T08:58:24.456Z,67.16
2022-09-12T09:04:10.142Z,67.37
2022-09-12T09:09:44.686Z,67.33
2022-09-12T09:15:26.259Z,67.04
2022-09-12T09:20:54.296Z,67.39
2022-09-12T09:26:30.517Z,67.36
2022-09-12T09:31:58.257Z,66.66
2022-09-12T09:37:21.378Z,66.58
2022-09-12T09:42:51.759Z,66.28
2022-09-12T09:48:22.521Z,65.94
2022-09-12T09:53:51.826Z,66.04
2022-09-12T09:59:25.810Z,66.23
2022-09-12T10:04:57.786Z,65.27
2022-09-12T10:10:22.919Z,65.47
2022-09-12T10:15:57.857Z,64.48
2022-09-12T10:21:46.228Z,64.74
2022-09-12T10:27:20.297Z,64.19
2022-09-12T10:32:48.794Z,64.28
2022-09-12T10:38:30.407Z,64.11
2022-09-12T10:43:51.282Z,64.35
2022-09-12T10:49:27.247Z,63.52
2022-09-12T10:54:50.537Z,63.58
2022-09-12T11:00:20.600Z,63.78
2022-09-12T11:05:57.756Z,63.43
2022-09-12T11:11:24.546Z,62.79
2022-09-12T11:16:58.728Z,62.75
2022-09-12T11:22:53.040Z,62.35
2022-09-12T11:28:22.517Z,61.58
2022-09-12T11:33:50.250Z,61.55
2022-09-12T11:39:15.567Z,61.59
2022-09-12T11:44:46.184Z,61.03
2022-09-12T11:50:23.428Z,61.41
2022-09-12T11:56:00.069Z,61.42
2022-09-12T12:01:26.337Z,60.86
2022-09-12T12:07:02.255Z,61.07
2022-09-12T12:12:28.259Z,60.76
2022-09-12T12:18:32.334Z,61.42
2022-09-12T12:24:10.146Z,60.75
2022-09-12T12:29:43.617Z,60.84
2022-09-12T12:35:47.347Z,61.61
2022-09-12T12:41:17.508Z,61.25
2022-09-12T12:46:38.654Z,60.98
2022-09-12T12:52:03.757Z,61.63
2022-09-12T12:57:40.852Z,61.46
2022-09-12T13:03:27.799Z,61.43
2022-09-12T13:09:00.447Z,60.93
2022-09-12T13:14:43.075Z,61.11
2022-09-12T13:20:29.910Z,60.94
2022-09-12T13:25:56.513Z,60.96
2022-09-12T13:31:24.224Z,60.72
2022-09-12T13:36:54.567Z,60.49
2022-09-12T13:42:36.400Z,60.22
2022-09-12T13:48:02.007Z,60.54
2022-09-12T13:53:26.148Z,60.95
2022-09-12T13:58:57.606Z,60.47
2022-09-12T14:04:40.165Z,60.19
2022-09-12T14:10:02.115Z,59.91
2022-09-12T14:15:30.711Z,59.60
2022-09-12T14:20:53.332Z,59.29
2022-09-12T14:26:15.443Z,59.53
2022-09-12T14:31:38.403Z,58.59
2022-09-12T14:36:59.761Z,58.64
2022-09-12T14:42:23.784Z,58.66
2022-09-12T14:47:50.320Z,58.52
2022-09-12T14:53:17.221Z,58.97
2022-09-12T14:58:42.247Z,58.55
2022-09-12T15:04:03.036Z,58.67
2022-09-12T15:09:23.596Z,58.74
2022-09-12T15:14:44.183Z,58.59
2022-09-12T15:20:05.639Z,59.08
2022-09-12T15:25:26.811Z,59.45
2022-09-12T15:30:50.569Z,59.64
2022-09-12T15:36:15.758Z,59.51
2022-09-12T15:41:38.304Z,59.61
2022-09-12T15:46:59.185Z,60.04
2022-09-12T15:52:19.822Z,59.95
2022-09-12T15:57:40.506Z,60.13
2022-09-12T16:03:01.321Z,60.63
2022-09-12T16:08:22.081Z,60.50
2022-09-12T16:13:43.033Z,61.09
2022-09-12T16:19:03.791Z,61.13
2022-09-12T16:24:24.336Z,61.53
2022-09-12T16:29:45.120Z,61.68
2022-09-12T16:35:06.499Z,61.38
2022-09-12T16:40:27.327Z,61.58
2022-09-12T16:45:48.339Z,61.98
2022-09-12T16:51:09.825Z,62.13
2022-09-12T16:56:30.830Z,62.14
2022-09-12T17:01:52.311Z,62.37
2022-09-12T17:07:13.339Z,62.21
2022-09-12T17:12:34.191Z,61.94
2022-09-12T17:17:55.215Z,61.94
2022-09-12T17:23:16.072Z,62.32
2022-09-12T17:28:40.713Z,62.34
2022-09-12T17:34:02.197Z,62.45
2022-09-12T17:39:23.252Z,62.47
2022-09-12T17:44:44.093Z,62.40
2022-09-12T17:50:30.373Z,62.25
2022-09-12T17:55:46.312Z,62.00
2022-09-12T18:01:34.597Z,62.09
2022-09-12T18:06:57.625Z,62.17
2022-09-12T18:12:20.101Z,62.20
2022-09-12T18:17:40.946Z,62.35
2022-09-12T18:23:01.715Z,62.55
2022-09-12T18:28:22.573Z,62.55
2022-09-12T18:33:44.275Z,62.57
2022-09-12T18:39:05.091Z,62.72
2022-09-12T18:44:26.943Z,62.91
2022-09-12T18:49:47.587Z,62.68
2022-09-12T18:55:08.753Z,62.71
2022-09-12T19:00:29.749Z,62.46
2022-09-12T19:05:50.355Z,62.45
2022-09-12T19:11:12.684Z,62.30
2022-09-12T19:16:38.222Z,62.27
2022-09-12T19:21:59.127Z,62.22
2022-09-12T19:27:19.970Z,62.15
2022-09-12T19:32:40.565Z,62.33
2022-09-12T19:38:01.225Z,62.06
2022-09-12T19:43:22.333Z,62.13
2022-09-12T19:48:43.054Z,62.20
2022-09-12T19:54:03.920Z,62.39
2022-09-12T19:59:24.444Z,62.22
2022-09-12T20:04:45.479Z,62.42
2022-09-12T20:10:06.397Z,62.59
2022-09-12T20:15:27.344Z,62.60
2022-09-12T20:20:47.999Z,62.58
2022-09-12T20:26:09.559Z,62.73
2022-09-12T20:31:30.499Z,62.72
2022-09-12T20:36:51.420Z,63.07
2022-09-12T20:42:12.295Z,63.03
2022-09-12T20:47:33.493Z,62.74
2022-09-12T20:52:54.969Z,62.52
2022-09-12T20:58:15.890Z,62.67
2022-09-12T21:03:38.797Z,62.79
2022-09-12T21:09:00.554Z,62.58
2022-09-12T21:14:21.393Z,62.78
2022-09-12T21:19:42.257Z,62.68
2022-09-12T21:25:03.373Z,62.45
2022-09-12T21:30:24.327Z,62.36
2022-09-12T21:35:45.915Z,62.90
2022-09-12T21:41:12.809Z,63.09
2022-09-12T21:46:33.501Z,62.97
2022-09-12T21:51:54.129Z,62.80
2022-09-12T21:57:14.718Z,62.77
2022-09-12T22:02:35.537Z,63.05
2022-09-12T22:07:56.220Z,63.06
2022-09-12T22:13:16.880Z,63.12
2022-09-12T22:18:38.231Z,63.59
2022-09-12T22:24:19.140Z,63.30
2022-09-12T22:29:39.708Z,63.33
2022-09-12T22:35:00.219Z,63.49
2022-09-12T22:40:20.986Z,63.17
2022-09-12T22:45:42.064Z,63.17
2022-09-12T22:51:02.881Z,62.97
2022-09-12T22:56:23.785Z,62.64
2022-09-12T23:01:44.798Z,62.68
2022-09-12T23:07:05.489Z,62.49
2022-09-12T23:12:26.388Z,62.74
2022-09-12T23:17:47.443Z,62.68
2022-09-12T23:23:08.121Z,62.60
2022-09-12T23:28:29.395Z,62.72
2022-09-12T23:33:52.856Z,62.72
2022-09-12T23:39:13.845Z,62.78
2022-09-12T23:44:34.324Z,62.82
2022-09-12T23:49:55.135Z,62.93
2022-09-12T23:55:15.548Z,63.00
